createdAt,value
2018-03-26T00:02:07.466Z,41.13
2018-03-26T00:04:34.979Z,39.57
2018-03-26T00:07:03.292Z,38.70
2018-03-26T00:09:30.799Z,38.83
2018-03-26T00:11:58.340Z,40.03
2018-03-26T00:14:25.802Z,40.70
2018-03-26T00:16:53.289Z,39.83
2018-03-26T00:19:20.802Z,40.20
2018-03-26T00:21:48.300Z,38.90
2018-03-26T00:24:15.809Z,39.30
2018-03-26T00:26:43.282Z,41.50
2018-03-26T00:29:10.766Z,37.53
2018-03-26T00:31:38.308Z,38.33
2018-03-26T00:34:05.780Z,38.03
2018-03-26T00:36:33.309Z,41.00
2018-03-26T00:39:01.564Z,38.37
2018-03-26T00:41:29.128Z,39.30
2018-03-26T00:43:57.360Z,39.67
2018-03-26T00:46:24.884Z,37.60
2018-03-26T00:48:53.261Z,38.97
2018-03-26T00:51:20.749Z,39.60
2018-03-26T00:53:48.215Z,44.50
2018-03-26T00:56:16.002Z,42.03
2018-03-26T00:58:43.485Z,43.53
2018-03-26T01:01:10.997Z,41.67
2018-03-26T01:03:39.234Z,40.40
2018-03-26T01:06:06.732Z,43.23
2018-03-26T01:08:34.210Z,42.03
2018-03-26T01:11:01.724Z,43.77
2018-03-26T01:13:29.232Z,44.37
2018-03-26T01:15:57.821Z,44.00
2018-03-26T01:18:25.351Z,45.40
2018-03-26T01:20:52.841Z,45.97
2018-03-26T01:23:20.344Z,47.83
2018-03-26T01:25:47.994Z,48.90
2018-03-26T01:28:15.564Z,47.27
2018-03-26T01:30:43.237Z,48.87
2018-03-26T01:33:10.915Z,44.30
2018-03-26T01:35:38.422Z,46.47
2018-03-26T01:38:05.934Z,48.30
2018-03-26T01:40:33.487Z,51.00
2018-03-26T01:43:00.909Z,50.80
2018-03-26T01:45:28.433Z,50.13
2018-03-26T01:47:55.912Z,52.87
2018-03-26T01:50:23.424Z,53.97
2018-03-26T01:52:50.912Z,50.23
2018-03-26T01:55:18.399Z,51.87
2018-03-26T01:57:45.895Z,53.27
2018-03-26T02:00:14.243Z,54.03
2018-03-26T02:02:41.679Z,53.37
2018-03-26T02:05:09.162Z,53.97
2018-03-26T02:07:36.697Z,56.33
2018-03-26T02:10:04.171Z,58.50
2018-03-26T02:12:31.689Z,59.47
2018-03-26T02:14:59.938Z,56.07
2018-03-26T02:17:27.495Z,57.57
2018-03-26T02:19:55.604Z,56.80
2018-03-26T02:22:23.118Z,59.47
2018-03-26T02:24:51.509Z,54.17
2018-03-26T02:27:19.424Z,54.50
2018-03-26T02:29:47.707Z,52.20
2018-03-26T02:32:15.211Z,53.00
2018-03-26T02:34:42.684Z,54.53
2018-03-26T02:37:10.179Z,49.20
2018-03-26T02:39:38.064Z,47.20
2018-03-26T02:42:05.569Z,48.40
2018-03-26T02:44:33.041Z,47.27
2018-03-26T02:47:00.535Z,46.43
2018-03-26T02:49:28.015Z,44.83
2018-03-26T02:51:55.643Z,44.67
2018-03-26T02:54:23.154Z,42.17
2018-03-26T02:56:50.674Z,41.10
2018-03-26T02:59:18.124Z,41.57
2018-03-26T03:01:45.626Z,42.90
2018-03-26T03:04:13.136Z,40.97
2018-03-26T03:06:40.625Z,37.70
2018-03-26T03:09:08.156Z,39.00
2018-03-26T03:11:35.710Z,38.90
2018-03-26T03:14:03.138Z,36.67
2018-03-26T03:16:30.629Z,38.67
2018-03-26T03:18:58.090Z,38.57
2018-03-26T03:21:25.626Z,38.23
2018-03-26T03:23:53.038Z,40.17
2018-03-26T03:26:20.627Z,39.77
2018-03-26T03:28:48.119Z,39.27
2018-03-26T03:31:15.667Z,42.03
2018-03-26T03:33:43.143Z,39.43
2018-03-26T03:36:10.561Z,41.63
2018-03-26T03:38:38.059Z,38.73
2018-03-26T03:41:05.617Z,42.10
2018-03-26T03:43:33.096Z,41.73
2018-03-26T03:46:00.596Z,43.20
2018-03-26T03:48:28.092Z,40.70
2018-03-26T03:50:55.697Z,43.87
2018-03-26T03:53:23.263Z,39.70
2018-03-26T03:55:51.792Z,42.07
2018-03-26T03:58:19.256Z,42.17
2018-03-26T04:00:46.729Z,42.73
2018-03-26T04:03:14.222Z,41.20
2018-03-26T04:05:41.735Z,41.00
2018-03-26T04:08:09.230Z,43.30
2018-03-26T04:10:36.718Z,42.93
2018-03-26T04:13:04.234Z,44.50
2018-03-26T04:15:31.712Z,42.30
2018-03-26T04:17:59.215Z,43.20
2018-03-26T04:20:26.662Z,44.17
2018-03-26T04:22:54.160Z,42.10
2018-03-26T04:25:21.627Z,43.17
2018-03-26T04:27:49.117Z,42.00
2018-03-26T04:30:16.622Z,44.10
2018-03-26T04:32:44.142Z,44.23
2018-03-26T04:35:11.640Z,43.37
2018-03-26T04:37:39.114Z,44.00
2018-03-26T04:40:06.634Z,44.33
2018-03-26T04:42:34.130Z,44.43
2018-03-26T04:45:01.649Z,45.83
2018-03-26T04:47:29.129Z,43.60
2018-03-26T04:49:56.647Z,41.70
2018-03-26T04:52:24.923Z,39.03
2018-03-26T04:54:53.206Z,44.07
2018-03-26T04:57:21.572Z,42.20
2018-03-26T04:59:49.053Z,42.03
2018-03-26T05:02:16.573Z,45.57
2018-03-26T05:04:44.253Z,41.87
2018-03-26T05:07:11.702Z,44.27
2018-03-26T05:09:40.001Z,42.50
2018-03-26T05:12:07.498Z,42.07
2018-03-26T05:14:35.749Z,44.23
2018-03-26T05:17:03.431Z,44.43
2018-03-26T05:19:32.487Z,45.43
2018-03-26T05:21:59.991Z,43.27
2018-03-26T05:24:27.718Z,46.00
2018-03-26T05:26:55.202Z,46.87
2018-03-26T05:29:22.739Z,45.60
2018-03-26T05:31:50.389Z,44.70
2018-03-26T05:34:19.417Z,47.53
2018-03-26T05:36:47.184Z,44.53
2018-03-26T05:39:14.680Z,42.87
2018-03-26T05:41:42.989Z,45.67
2018-03-26T05:44:10.482Z,44.43
2018-03-26T05:46:37.936Z,43.23
2018-03-26T05:49:05.452Z,44.40
2018-03-26T05:51:33.732Z,44.23
2018-03-26T05:54:01.200Z,45.17
2018-03-26T05:56:28.784Z,44.27
2018-03-26T05:58:56.289Z,44.30
2018-03-26T06:01:23.801Z,44.77
2018-03-26T06:03:51.469Z,42.30
2018-03-26T06:06:19.684Z,40.33
2018-03-26T06:08:47.213Z,40.80
2018-03-26T06:11:15.472Z,42.57
2018-03-26T06:13:43.745Z,40.47
2018-03-26T06:16:11.204Z,42.47
2018-03-26T06:18:38.710Z,39.80
2018-03-26T06:21:06.174Z,41.70
2018-03-26T06:23:33.679Z,41.80
2018-03-26T06:26:01.176Z,41.27
2018-03-26T06:28:28.686Z,39.00
2018-03-26T06:30:56.176Z,39.90
2018-03-26T06:33:23.756Z,39.67
2018-03-26T06:35:51.220Z,36.87
2018-03-26T06:38:19.574Z,38.03
2018-03-26T06:40:46.974Z,40.23
2018-03-26T06:43:14.502Z,38.90
2018-03-26T06:45:42.995Z,39.27
2018-03-26T06:48:10.457Z,40.83
2018-03-26T06:50:37.920Z,40.10
2018-03-26T06:53:06.230Z,38.50
2018-03-26T06:55:33.805Z,41.83
2018-03-26T06:58:01.312Z,37.97
2018-03-26T07:00:28.897Z,36.97
2018-03-26T07:02:56.479Z,37.50
2018-03-26T07:05:24.047Z,38.70
2018-03-26T07:07:51.657Z,36.07
2018-03-26T07:10:19.883Z,33.30
2018-03-26T07:12:48.156Z,33.97
2018-03-26T07:15:16.475Z,34.63
2018-03-26T07:17:44.743Z,35.77
2018-03-26T07:20:12.213Z,31.83
2018-03-26T07:22:39.766Z,32.47
2018-03-26T07:25:07.236Z,28.73
2018-03-26T07:27:34.750Z,29.80
2018-03-26T07:30:02.266Z,29.60
2018-03-26T07:32:29.821Z,30.73
2018-03-26T07:34:57.332Z,30.47
2018-03-26T07:37:24.842Z,29.40
2018-03-26T07:39:53.090Z,27.57
2018-03-26T07:42:20.576Z,24.07
2018-03-26T07:44:48.899Z,27.30
2018-03-26T07:47:16.402Z,28.87
2018-03-26T07:49:43.923Z,33.97
2018-03-26T07:52:11.506Z,26.70
2018-03-26T07:54:39.693Z,26.90
2018-03-26T07:57:07.186Z,26.50
2018-03-26T07:59:35.485Z,25.97
2018-03-26T08:02:02.992Z,25.30
2018-03-26T08:04:30.426Z,24.90
2018-03-26T08:06:58.007Z,25.20
2018-03-26T08:09:26.320Z,24.70
2018-03-26T08:11:53.840Z,23.97
2018-03-26T08:14:21.340Z,22.70
2018-03-26T08:16:48.907Z,20.73
2018-03-26T08:19:16.344Z,24.47
2018-03-26T08:21:43.837Z,21.13
2018-03-26T08:24:11.416Z,17.87
2018-03-26T08:26:38.858Z,18.90
2018-03-26T08:29:06.432Z,20.03
2018-03-26T08:31:33.946Z,18.57
2018-03-26T08:34:01.497Z,17.50
2018-03-26T08:36:28.978Z,15.10
2018-03-26T08:38:56.975Z,15.23
2018-03-26T08:41:24.442Z,16.57
2018-03-26T08:43:52.469Z,16.20
2018-03-26T08:46:20.981Z,16.50
2018-03-26T08:48:49.569Z,16.43
2018-03-26T08:51:17.450Z,14.70
2018-03-26T08:53:44.954Z,15.53
2018-03-26T08:56:13.258Z,14.13
2018-03-26T08:58:41.546Z,10.93
2018-03-26T09:01:09.011Z,10.60
2018-03-26T09:03:36.597Z,9.03
2018-03-26T09:06:04.053Z,9.50
2018-03-26T09:08:31.579Z,6.60
2018-03-26T09:10:59.864Z,9.00
2018-03-26T09:13:27.346Z,7.87
2018-03-26T09:15:55.288Z,9.47
2018-03-26T09:18:23.837Z,9.70
2018-03-26T09:20:51.278Z,8.47
2018-03-26T09:23:19.137Z,7.77
2018-03-26T09:25:46.547Z,5.70
2018-03-26T09:28:14.089Z,7.20
2018-03-26T09:30:41.576Z,5.90
2018-03-26T09:33:09.133Z,6.57
2018-03-26T09:35:36.655Z,8.33
2018-03-26T09:38:04.131Z,5.67
2018-03-26T09:40:32.324Z,4.13
2018-03-26T09:43:00.542Z,5.87
2018-03-26T09:45:28.830Z,6.60
2018-03-26T09:47:57.123Z,6.13
2018-03-26T09:50:24.660Z,8.17
2018-03-26T09:52:52.935Z,6.20
2018-03-26T09:55:21.216Z,4.83
2018-03-26T09:57:49.513Z,5.90
2018-03-26T10:00:18.614Z,6.13
2018-03-26T10:02:47.015Z,5.77
2018-03-26T10:05:15.500Z,6.27
2018-03-26T10:07:43.070Z,6.73
2018-03-26T10:10:10.517Z,6.00
2018-03-26T10:12:38.796Z,5.17
2018-03-26T10:15:07.088Z,5.53
2018-03-26T10:17:34.586Z,5.33
2018-03-26T10:20:02.124Z,5.40
2018-03-26T10:22:29.678Z,5.53
2018-03-26T10:24:57.856Z,5.90
2018-03-26T10:27:25.345Z,4.80
2018-03-26T10:29:52.886Z,5.00
2018-03-26T10:32:20.386Z,7.47
2018-03-26T10:34:47.921Z,6.60
2018-03-26T10:37:15.379Z,7.07
2018-03-26T10:39:42.912Z,5.93
2018-03-26T10:42:10.396Z,5.40
2018-03-26T10:44:37.907Z,4.70
2018-03-26T10:47:05.408Z,5.07
2018-03-26T10:49:33.654Z,5.40
2018-03-26T10:52:01.172Z,5.97
2018-03-26T10:54:28.652Z,4.50
2018-03-26T10:56:56.544Z,3.83
2018-03-26T10:59:24.062Z,4.20
2018-03-26T11:01:51.617Z,4.40
2018-03-26T11:04:19.093Z,3.90
2018-03-26T11:06:46.619Z,3.17
2018-03-26T11:09:14.098Z,3.70
2018-03-26T11:11:42.891Z,2.60
2018-03-26T11:14:10.434Z,2.17
2018-03-26T11:16:37.933Z,3.10
2018-03-26T11:19:05.408Z,2.70
2018-03-26T11:21:32.902Z,2.77
2018-03-26T11:24:00.424Z,4.07
2018-03-26T11:26:27.974Z,4.03
2018-03-26T11:28:55.522Z,3.70
2018-03-26T11:31:23.011Z,3.50
2018-03-26T11:33:51.421Z,3.50
2018-03-26T11:36:19.689Z,3.00
2018-03-26T11:38:47.117Z,2.90
2018-03-26T11:41:14.635Z,3.77
2018-03-26T11:43:42.344Z,3.80
2018-03-26T11:46:09.994Z,2.03
2018-03-26T11:48:37.457Z,2.03
2018-03-26T11:51:05.016Z,2.37
2018-03-26T11:53:32.517Z,2.70
2018-03-26T11:56:00.750Z,1.77
2018-03-26T11:58:28.231Z,1.70
2018-03-26T12:00:55.759Z,1.10
2018-03-26T12:03:23.302Z,1.87
2018-03-26T12:05:51.522Z,2.43
2018-03-26T12:08:19.066Z,1.43
2018-03-26T12:10:46.709Z,2.00
2018-03-26T12:13:14.230Z,2.20
2018-03-26T12:15:42.027Z,1.47
2018-03-26T12:18:09.604Z,2.10
2018-03-26T12:20:37.256Z,2.57
2018-03-26T12:23:04.708Z,2.20
2018-03-26T12:25:33.013Z,2.70
2018-03-26T12:28:01.278Z,2.27
2018-03-26T12:30:28.788Z,2.57
2018-03-26T12:32:56.466Z,3.00
2018-03-26T12:35:23.964Z,2.77
2018-03-26T12:37:52.266Z,2.77
2018-03-26T12:40:19.832Z,2.17
2018-03-26T12:42:48.081Z,2.70
2018-03-26T12:45:16.525Z,2.80
2018-03-26T12:47:43.983Z,3.87
2018-03-26T12:50:11.746Z,3.30
2018-03-26T12:52:39.237Z,3.13
2018-03-26T12:55:06.763Z,2.87
2018-03-26T12:57:34.290Z,3.50
2018-03-26T13:00:01.821Z,3.30
2018-03-26T13:02:29.338Z,3.50
2018-03-26T13:04:56.863Z,3.07
2018-03-26T13:07:24.349Z,4.63
2018-03-26T13:09:51.894Z,4.40
2018-03-26T13:12:20.190Z,4.77
2018-03-26T13:14:48.512Z,4.13
2018-03-26T13:17:16.072Z,3.97
2018-03-26T13:19:45.341Z,4.07
2018-03-26T13:22:14.067Z,4.40
2018-03-26T13:24:41.582Z,3.70
2018-03-26T13:27:09.066Z,2.37
2018-03-26T13:29:36.593Z,2.33
2018-03-26T13:32:04.083Z,2.30
2018-03-26T13:34:32.708Z,2.60
2018-03-26T13:37:00.206Z,3.70
2018-03-26T13:39:27.698Z,3.63
2018-03-26T13:41:56.537Z,4.63
2018-03-26T13:44:24.734Z,5.30
2018-03-26T13:46:52.458Z,6.80
2018-03-26T13:49:19.963Z,4.83
2018-03-26T13:51:47.515Z,5.00
2018-03-26T13:54:15.080Z,4.40
2018-03-26T13:56:42.627Z,3.80
2018-03-26T13:59:11.116Z,3.30
2018-03-26T14:01:39.043Z,3.17
2018-03-26T14:04:06.585Z,3.53
2018-03-26T14:06:34.095Z,3.30
2018-03-26T14:09:01.619Z,4.07
2018-03-26T14:11:29.132Z,3.90
2018-03-26T14:13:56.692Z,4.10
2018-03-26T14:16:24.193Z,3.20
2018-03-26T14:18:51.700Z,3.53
2018-03-26T14:21:19.252Z,4.87
2018-03-26T14:23:47.540Z,3.90
2018-03-26T14:26:15.820Z,3.90
2018-03-26T14:28:44.079Z,3.80
2018-03-26T14:31:11.700Z,3.40
2018-03-26T14:33:39.216Z,4.13
2018-03-26T14:36:06.767Z,3.40
2018-03-26T14:38:34.282Z,4.03
2018-03-26T14:41:01.766Z,3.33
2018-03-26T14:43:29.328Z,3.73
2018-03-26T14:45:56.847Z,3.80
2018-03-26T14:48:25.128Z,3.60
2018-03-26T14:50:52.691Z,3.50
2018-03-26T14:53:20.966Z,3.93
2018-03-26T14:55:49.262Z,4.23
2018-03-26T14:58:17.527Z,4.80
2018-03-26T15:00:45.880Z,3.77
2018-03-26T15:03:13.380Z,3.60
2018-03-26T15:05:41.667Z,4.20
2018-03-26T15:08:09.221Z,4.20
2018-03-26T15:10:37.236Z,4.00
2018-03-26T15:13:04.705Z,3.93
2018-03-26T15:15:32.227Z,2.83
2018-03-26T15:17:59.767Z,4.47
2018-03-26T15:20:27.275Z,3.27
2018-03-26T15:22:54.778Z,3.57
2018-03-26T15:25:22.295Z,3.57
2018-03-26T15:27:49.819Z,2.80
2018-03-26T15:30:17.314Z,4.40
2018-03-26T15:32:45.619Z,3.70
2018-03-26T15:35:13.868Z,3.30
2018-03-26T15:37:42.612Z,4.57
2018-03-26T15:40:10.661Z,3.50
2018-03-26T15:42:38.133Z,3.20
2018-03-26T15:45:06.292Z,4.23
2018-03-26T15:47:33.885Z,4.47
2018-03-26T15:50:01.403Z,4.70
2018-03-26T15:52:28.916Z,3.80
2018-03-26T15:54:56.489Z,3.77
2018-03-26T15:57:23.975Z,3.53
2018-03-26T15:59:51.501Z,2.83
2018-03-26T16:02:19.135Z,2.47
2018-03-26T16:04:46.579Z,3.30
2018-03-26T16:07:14.882Z,3.20
2018-03-26T16:09:42.493Z,2.50
2018-03-26T16:12:10.067Z,2.77
2018-03-26T16:14:38.284Z,2.93
2018-03-26T16:17:05.826Z,2.87
2018-03-26T16:19:34.135Z,2.70
2018-03-26T16:22:03.160Z,2.93
2018-03-26T16:24:32.155Z,3.87
2018-03-26T16:26:59.695Z,2.87
2018-03-26T16:29:27.245Z,2.87
2018-03-26T16:31:55.524Z,4.00
2018-03-26T16:34:23.115Z,2.37
2018-03-26T16:36:51.384Z,3.37
2018-03-26T16:39:19.692Z,4.70
2018-03-26T16:41:47.422Z,3.73
2018-03-26T16:44:14.937Z,4.47
2018-03-26T16:46:42.495Z,4.23
2018-03-26T16:49:10.036Z,3.97
2018-03-26T16:51:37.624Z,4.30
2018-03-26T16:54:05.172Z,4.30
2018-03-26T16:56:32.771Z,3.40
2018-03-26T16:59:00.256Z,4.10
2018-03-26T17:01:28.637Z,4.10
2018-03-26T17:03:56.937Z,4.23
2018-03-26T17:06:24.489Z,4.37
2018-03-26T17:08:52.768Z,4.80
2018-03-26T17:11:21.057Z,4.50
2018-03-26T17:13:49.293Z,5.63
2018-03-26T17:16:16.813Z,4.70
2018-03-26T17:18:45.062Z,4.63
2018-03-26T17:21:12.643Z,4.27
2018-03-26T17:23:40.141Z,4.10
2018-03-26T17:26:08.390Z,5.70
2018-03-26T17:28:36.598Z,7.20
2018-03-26T17:31:04.837Z,7.30
2018-03-26T17:33:32.358Z,9.17
2018-03-26T17:36:00.967Z,8.60
2018-03-26T17:38:28.533Z,7.70
2018-03-26T17:40:56.118Z,8.03
2018-03-26T17:43:23.659Z,8.40
2018-03-26T17:45:51.234Z,9.60
2018-03-26T17:48:18.839Z,8.50
2018-03-26T17:50:46.306Z,8.57
2018-03-26T17:53:13.889Z,9.00
2018-03-26T17:55:41.393Z,8.77
2018-03-26T17:58:09.660Z,8.90
2018-03-26T18:00:37.180Z,9.03
2018-03-26T18:03:04.708Z,9.77
2018-03-26T18:05:32.301Z,10.03
2018-03-26T18:07:59.782Z,9.13
2018-03-26T18:10:27.302Z,9.97
2018-03-26T18:12:54.838Z,10.53
2018-03-26T18:15:22.333Z,9.67
2018-03-26T18:17:49.928Z,10.37
2018-03-26T18:20:17.445Z,10.67
2018-03-26T18:22:45.795Z,10.03
2018-03-26T18:25:14.994Z,10.80
2018-03-26T18:27:42.484Z,9.40
2018-03-26T18:30:10.082Z,10.17
2018-03-26T18:32:38.580Z,10.17
2018-03-26T18:35:06.076Z,11.23
2018-03-26T18:37:33.655Z,10.40
2018-03-26T18:40:01.078Z,9.67
2018-03-26T18:42:28.672Z,9.50
2018-03-26T18:44:56.428Z,10.47
2018-03-26T18:47:23.873Z,10.30
2018-03-26T18:49:51.426Z,12.10
2018-03-26T18:52:18.895Z,10.77
2018-03-26T18:54:46.464Z,12.33
2018-03-26T18:57:13.979Z,9.93
2018-03-26T18:59:41.567Z,11.07
2018-03-26T19:02:09.124Z,11.20
2018-03-26T19:04:37.430Z,10.70
2018-03-26T19:07:04.966Z,10.97
2018-03-26T19:09:33.627Z,10.70
2018-03-26T19:12:01.177Z,12.50
2018-03-26T19:14:28.724Z,12.43
2018-03-26T19:16:56.225Z,12.07
2018-03-26T19:19:24.010Z,12.17
2018-03-26T19:21:52.295Z,14.10
2018-03-26T19:24:19.780Z,13.10
2018-03-26T19:26:47.323Z,13.20
2018-03-26T19:29:14.791Z,13.20
2018-03-26T19:31:43.096Z,12.67
2018-03-26T19:34:10.617Z,14.27
2018-03-26T19:36:38.136Z,14.07
2018-03-26T19:39:05.716Z,14.87
2018-03-26T19:41:33.335Z,14.80
2018-03-26T19:44:01.654Z,15.33
2018-03-26T19:46:29.194Z,14.63
2018-03-26T19:48:56.939Z,15.10
2018-03-26T19:51:26.504Z,13.47
2018-03-26T19:53:54.905Z,15.73
2018-03-26T19:56:23.225Z,16.77
2018-03-26T19:58:50.790Z,16.33
2018-03-26T20:01:18.340Z,16.37
2018-03-26T20:03:46.634Z,15.70
2018-03-26T20:06:14.127Z,16.63
2018-03-26T20:08:41.665Z,16.67
2018-03-26T20:11:09.249Z,14.60
2018-03-26T20:13:36.810Z,15.90
2018-03-26T20:16:04.334Z,17.20
2018-03-26T20:18:32.617Z,17.93
2018-03-26T20:21:00.943Z,16.37
2018-03-26T20:23:30.278Z,17.60
2018-03-26T20:25:57.830Z,15.57
2018-03-26T20:28:25.360Z,18.53
2018-03-26T20:30:53.592Z,17.10
2018-03-26T20:33:21.150Z,15.63
2018-03-26T20:35:48.772Z,15.80
2018-03-26T20:38:16.451Z,15.23
2018-03-26T20:40:43.988Z,16.37
2018-03-26T20:43:11.587Z,16.23
2018-03-26T20:45:39.149Z,19.77
2018-03-26T20:48:06.704Z,16.50
2018-03-26T20:50:34.918Z,17.20
2018-03-26T20:53:02.320Z,17.87
2018-03-26T20:55:29.848Z,16.77
2018-03-26T20:57:57.417Z,15.90
2018-03-26T21:00:24.901Z,18.60
2018-03-26T21:02:53.173Z,16.37
2018-03-26T21:05:20.857Z,18.17
2018-03-26T21:07:48.437Z,19.37
2018-03-26T21:10:16.001Z,19.80
2018-03-26T21:12:43.973Z,19.03
2018-03-26T21:15:12.266Z,17.73
2018-03-26T21:17:40.550Z,19.10
2018-03-26T21:20:08.154Z,20.50
2018-03-26T21:22:35.653Z,19.07
2018-03-26T21:25:03.919Z,17.77
2018-03-26T21:27:32.260Z,20.13
2018-03-26T21:29:59.889Z,20.33
2018-03-26T21:32:27.459Z,23.93
2018-03-26T21:34:56.112Z,23.07
2018-03-26T21:37:23.599Z,21.87
2018-03-26T21:39:51.139Z,23.80
2018-03-26T21:42:19.554Z,26.37
2018-03-26T21:44:47.116Z,25.80
2018-03-26T21:47:17.536Z,26.77
2018-03-26T21:49:45.046Z,26.23
2018-03-26T21:52:12.582Z,27.60
2018-03-26T21:54:40.032Z,26.93
2018-03-26T21:57:07.579Z,25.80
2018-03-26T21:59:35.854Z,28.77
2018-03-26T22:02:03.579Z,28.37
2018-03-26T22:04:31.155Z,26.70
2018-03-26T22:06:58.613Z,28.00
2018-03-26T22:09:26.094Z,28.60
2018-03-26T22:11:53.620Z,28.20
2018-03-26T22:14:21.112Z,28.87
2018-03-26T22:16:48.664Z,29.27
2018-03-26T22:19:16.112Z,28.40
2018-03-26T22:21:43.639Z,30.90
2018-03-26T22:24:11.190Z,30.90
2018-03-26T22:26:38.654Z,28.10
2018-03-26T22:29:06.968Z,28.13
2018-03-26T22:31:34.464Z,28.10
2018-03-26T22:34:02.686Z,27.87
2018-03-26T22:36:30.163Z,30.40
2018-03-26T22:38:58.401Z,30.13
2018-03-26T22:41:25.996Z,31.07
2018-03-26T22:43:53.438Z,29.80
2018-03-26T22:46:20.966Z,29.17
2018-03-26T22:48:48.455Z,28.80
2018-03-26T22:51:15.950Z,29.77
2018-03-26T22:53:43.414Z,30.37
2018-03-26T22:56:10.915Z,29.53
2018-03-26T22:58:38.400Z,31.00
2018-03-26T23:01:05.918Z,29.70
2018-03-26T23:03:33.398Z,30.80
2018-03-26T23:06:00.932Z,31.17
2018-03-26T23:08:28.459Z,30.37
2018-03-26T23:10:55.956Z,31.50
2018-03-26T23:13:23.512Z,33.03
2018-03-26T23:15:51.807Z,30.60
2018-03-26T23:18:19.371Z,33.13
2018-03-26T23:20:47.011Z,29.83
2018-03-26T23:23:14.565Z,29.13
2018-03-26T23:25:42.207Z,32.40
2018-03-26T23:28:09.688Z,31.03
2018-03-26T23:30:37.170Z,31.03
2018-03-26T23:33:04.722Z,32.83
2018-03-26T23:35:32.245Z,34.80
2018-03-26T23:37:59.705Z,30.90
2018-03-26T23:40:27.433Z,32.20
2018-03-26T23:42:55.689Z,31.40
2018-03-26T23:45:23.193Z,33.70
2018-03-26T23:47:50.732Z,34.57
2018-03-26T23:50:18.245Z,32.50
2018-03-26T23:52:45.774Z,30.33
2018-03-26T23:55:13.274Z,33.87
2018-03-26T23:57:40.840Z,32.63
